METAR Data
IDs: Format: Raw Decoded Include TAF

Data at: 0748 UTC 07 Dec 2022

KUAO 070729Z AUTO 00000KT 3SM BR BKN012 OVC047 03/02 A3022 RMK AO2 T00280022
KUAO 070720Z AUTO 00000KT 2 1/2SM BR BKN013 OVC047 03/02 A3022 RMK AO2 T00280022
KUAO 070705Z AUTO 00000KT 2 1/2SM BR SCT013 OVC045 03/02 A3022 RMK AO2 T00280022
KUAO 070653Z AUTO 00000KT 3SM BR FEW013 OVC045 03/02 A3022 RMK AO2 SLP234 T00280017
KUAO 070553Z AUTO 00000KT 6SM BR OVC047 04/02 A3021 RMK AO2 SLP232 T00390022 10056 20033 51006
KUAO 070453Z AUTO 00000KT 6SM BR OVC048 04/03 A3021 RMK AO2 SLP232 T00390028
KUAO 070353Z 00000KT 7SM OVC049 04/03 A3020 RMK AO2 SLP228 T00440028
KUAO 070253Z 00000KT 7SM OVC049 05/02 A3019 RMK AO2 SLP226 T00500022 51004
KUAO 070153Z 00000KT 8SM OVC050 04/02 A3019 RMK AO2 SLP225 T00440022
KUAO 070053Z 00000KT 10SM OVC050 05/02 A3019 RMK AO2 SLP223 T00500022
KUAO 062353Z 00000KT 9SM OVC050 06/02 A3018 RMK AO2 SLP222 T00560022 10056 20028 55000
KUAO 062253Z 00000KT 10SM SCT012 OVC050 06/02 A3019 RMK AO2 SLP222 T00560022
KUAO 062153Z 00000KT 9SM FEW011 OVC050 05/02 A3018 RMK AO2 SLP221 T00500017
KUAO 062135Z 00000KT 9SM SCT009 OVC050 05/02 A3018 RMK AO2 T00500017
KUAO 062053Z 00000KT 9SM BKN009 OVC050 04/02 A3018 RMK AO2 SLP222 T00440017 58000
KUAO 061953Z 00000KT 8SM OVC008 04/02 A3019 RMK AO2 SLP225 T00390017
KUAO 061853Z 00000KT 8SM OVC007 04/02 A3019 RMK AO2 SLP225 T00390017
KUAO 061753Z 00000KT 9SM BKN006 OVC048 03/01 A3018 RMK AO2 SLP222 T00330011 10033 20017 53012
KUAO 061653Z 00000KT 9SM BKN006 OVC048 02/01 A3017 RMK AO2 SLP217 T00220011
KUAO 061553Z 00000KT 8SM BKN007 OVC048 02/01 A3016 RMK AO2 SLP214 T00220011
KUAO 061523Z 00000KT 10SM BKN008 OVC048 02/01 A3016 RMK AO2 T00220011
KUAO 061511Z 00000KT 10SM SCT008 OVC048 02/01 A3016 RMK AO2 T00220011
KUAO 061453Z COR 00000KT 10SM BKN008 OVC048 02/01 A3015 RMK AO2 SLP211 T00220011 53007
KUAO 061353Z AUTO 00000KT 10SM BKN007 OVC050 02/01 A3014 RMK AO2 SLP206 T00220011
KUAO 061341Z AUTO 00000KT 10SM SCT007 OVC049 02/01 A3014 RMK AO2 T00170011
KUAO 061253Z AUTO 00000KT 9SM OVC047 02/01 A3013 RMK AO2 SLP204 T00170011
KUAO 061153Z AUTO 00000KT 10SM OVC047 02/01 A3013 RMK AO2 SLP203 T00170006 10022 20017 50004
KUAO 061106Z AUTO 17003KT 10SM SCT012 OVC048 02/01 A3014 RMK AO2 T00170006
KUAO 061053Z AUTO 17003KT 10SM FEW005 BKN012 OVC048 02/01 A3014 RMK AO2 SLP206 T00170006
KUAO 061037Z AUTO 00000KT 10SM FEW005 BKN011 OVC048 02/01 A3014 RMK AO2 T00220006
KUAO 061005Z AUTO 18003KT 10SM OVC010 02/01 A3013 RMK AO2 T00220006
KUAO 060953Z AUTO 17003KT 10SM OVC009 02/01 A3013 RMK AO2 SLP202 T00220011
KUAO 060911Z AUTO 18004KT 8SM OVC005 02/01 A3012 RMK AO2 CIG 004V009 T00220011
KUAO 060853Z AUTO 17004KT 7SM OVC004 02/01 A3012 RMK AO2 SLP199 T00220011 51006
KUAO 060753Z AUTO 18003KT 4SM BR OVC003 02/01 A3012 RMK AO2 SLP199 T00220011 400561011
KUAO 060734Z AUTO 21003KT 5SM BR OVC004 02/01 A3012 RMK AO2 T00220011
KUAO 060653Z AUTO 17005KT 7SM OVC006 02/01 A3011 RMK AO2 SLP196 T00220011
KUAO 060553Z AUTO 00000KT 6SM BR BKN007 OVC049 02/01 A3010 RMK AO2 SLP192 T00220011 10028 20022 52013
KUAO 060545Z AUTO 00000KT 6SM BR BKN007 OVC049 02/01 A3010 RMK AO2 T00220011
KUAO 060500Z AUTO 00000KT 6SM BR SCT004 OVC050 02/01 A3008 RMK AO2 T00220011
KUAO 060453Z AUTO 00000KT 6SM BR BKN004 OVC050 02/01 A3008 RMK AO2 SLP188 T00220011
KUAO 060400Z AUTO 18004KT 5SM BR OVC003 02/01 A3007 RMK AO2 T00220011
KUAO 060353Z 18003KT 5SM BR OVC005 02/01 A3007 RMK AO2 SLP184 T00220011
KUAO 060253Z 16004KT 5SM BR OVC005 02/01 A3006 RMK AO2 SLP179 T00220011 51009
KUAO 060153Z 16003KT 7SM OVC005 02/01 A3006 RMK AO2 SLP178 T00220011
KUAO 060053Z 20004KT 7SM OVC006 02/01 A3004 RMK AO2 SLP173 T00220011
KUAO 060006Z 16006KT 8SM BKN007 03/01 A3003 RMK AO2 T00280011
KUAO 052353Z 15006KT 9SM SCT007 03/01 A3003 RMK AO2 SLP171 T00280011 10056 21006 53005
KUAO 052337Z 16006KT 10SM SCT009 03/01 A3003 RMK AO2 T00330011
KUAO 052253Z 17008KT 10SM FEW010 04/02 A3001 RMK AO2 SLP164 T00440017
KUAO 052202Z 17005KT 10SM FEW010 05/02 A3001 RMK AO2 T00500022
KUAO 052153Z VRB03KT 10SM FEW010 05/02 A3001 RMK AO2 SLP164 T00500017
KUAO 052053Z 18004KT 10SM SCT011 05/02 A3002 RMK AO2 SLP165 T00500017 58008
KUAO 051953Z 16003KT 10SM FEW007 SCT021 02/01 A3003 RMK AO2 SLP168 T00220011